Terminal Aerodrome Forecast
Issued by NWS

Home | Current Version | Previous Version | Text Only | Print | Product List | Glossary On
Versions: 1 2 3 4 5 6 7 8 9 10 11 12 13 14 15 16 17
000
FTUS45 KTFX 080520
TAFGTF
TAF
KGTF 080520Z 0806/0906 VRB05KT P6SM OVC060
     FM081500 VRB05KT P6SM SCT070
     FM090400 36005KT P6SM -SN OVC040=

USA.gov is the U.S. government's official web portal to all federal, state and local government web resources and services.